sensor_id;sensor_type;location;lat;lon;timestamp;P1;durP1;ratioP1;P2;durP2;ratioP2
32469;SDS011;18925;48.356;10.864;2022-08-19T00:00:08;8.32;;;7.53;;
32469;SDS011;18925;48.356;10.864;2022-08-19T00:00:40;9.52;;;7.20;;
32469;SDS011;18925;48.356;10.864;2022-08-19T00:01:11;6.85;;;6.15;;
32469;SDS011;18925;48.356;10.864;2022-08-19T00:01:42;7.82;;;6.63;;
32469;SDS011;18925;48.356;10.864;2022-08-19T00:02:14;7.78;;;6.88;;
32469;SDS011;18925;48.356;10.864;2022-08-19T00:02:45;7.13;;;6.43;;
32469;SDS011;18925;48.356;10.864;2022-08-19T00:03:16;7.55;;;6.78;;
32469;SDS011;18925;48.356;10.864;2022-08-19T00:03:47;7.90;;;6.28;;
32469;SDS011;18925;48.356;10.864;2022-08-19T00:04:19;8.60;;;7.13;;
32469;SDS011;18925;48.356;10.864;2022-08-19T00:04:51;6.53;;;5.93;;
32469;SDS011;18925;48.356;10.864;2022-08-19T00:05:22;7.85;;;7.05;;
32469;SDS011;18925;48.356;10.864;2022-08-19T00:05:53;7.57;;;6.78;;
32469;SDS011;18925;48.356;10.864;2022-08-19T00:06:23;6.90;;;6.03;;
32469;SDS011;18925;48.356;10.864;2022-08-19T00:06:55;7.47;;;5.85;;
32469;SDS011;18925;48.356;10.864;2022-08-19T00:07:26;7.15;;;6.47;;
32469;SDS011;18925;48.356;10.864;2022-08-19T00:07:56;6.65;;;5.97;;
32469;SDS011;18925;48.356;10.864;2022-08-19T00:08:27;6.43;;;5.78;;
32469;SDS011;18925;48.356;10.864;2022-08-19T00:08:58;6.75;;;6.05;;
32469;SDS011;18925;48.356;10.864;2022-08-19T00:09:30;6.82;;;6.13;;
32469;SDS011;18925;48.356;10.864;2022-08-19T00:10:01;7.10;;;6.40;;
32469;SDS011;18925;48.356;10.864;2022-08-19T00:10:32;9.30;;;7.28;;
32469;SDS011;18925;48.356;10.864;2022-08-19T00:11:04;6.93;;;6.18;;
32469;SDS011;18925;48.356;10.864;2022-08-19T00:11:35;7.07;;;6.38;;
32469;SDS011;18925;48.356;10.864;2022-08-19T00:12:07;6.88;;;6.05;;
32469;SDS011;18925;48.356;10.864;2022-08-19T00:12:38;7.40;;;6.70;;
32469;SDS011;18925;48.356;10.864;2022-08-19T00:13:09;7.20;;;6.35;;
32469;SDS011;18925;48.356;10.864;2022-08-19T00:13:40;10.23;;;7.95;;
32469;SDS011;18925;48.356;10.864;2022-08-19T00:14:12;7.35;;;6.65;;
32469;SDS011;18925;48.356;10.864;2022-08-19T00:14:45;9.95;;;7.65;;
32469;SDS011;18925;48.356;10.864;2022-08-19T00:15:16;7.13;;;6.43;;
32469;SDS011;18925;48.356;10.864;2022-08-19T00:15:49;8.30;;;6.60;;
32469;SDS011;18925;48.356;10.864;2022-08-19T00:16:20;7.57;;;6.80;;
32469;SDS011;18925;48.356;10.864;2022-08-19T00:16:51;7.97;;;7.18;;
32469;SDS011;18925;48.356;10.864;2022-08-19T00:17:24;9.25;;;7.03;;
32469;SDS011;18925;48.356;10.864;2022-08-19T00:17:54;10.30;;;7.95;;
32469;SDS011;18925;48.356;10.864;2022-08-19T00:18:25;8.50;;;7.45;;
32469;SDS011;18925;48.356;10.864;2022-08-19T00:18:56;7.95;;;7.15;;
32469;SDS011;18925;48.356;10.864;2022-08-19T00:19:27;7.95;;;7.15;;
32469;SDS011;18925;48.356;10.864;2022-08-19T00:19:58;8.90;;;7.47;;
32469;SDS011;18925;48.356;10.864;2022-08-19T00:20:29;8.10;;;7.30;;
32469;SDS011;18925;48.356;10.864;2022-08-19T00:21:00;9.90;;;7.18;;
32469;SDS011;18925;48.356;10.864;2022-08-19T00:21:31;7.60;;;6.80;;
32469;SDS011;18925;48.356;10.864;2022-08-19T00:22:01;7.70;;;6.90;;
32469;SDS011;18925;48.356;10.864;2022-08-19T00:22:32;13.10;;;7.70;;
32469;SDS011;18925;48.356;10.864;2022-08-19T00:23:03;9.13;;;7.07;;
32469;SDS011;18925;48.356;10.864;2022-08-19T00:23:35;12.20;;;7.63;;
32469;SDS011;18925;48.356;10.864;2022-08-19T00:24:07;11.05;;;7.47;;
32469;SDS011;18925;48.356;10.864;2022-08-19T00:24:38;9.23;;;6.97;;
32469;SDS011;18925;48.356;10.864;2022-08-19T00:25:11;12.23;;;6.60;;
32469;SDS011;18925;48.356;10.864;2022-08-19T00:25:42;12.60;;;7.90;;
32469;SDS011;18925;48.356;10.864;2022-08-19T00:26:13;8.68;;;7.18;;
32469;SDS011;18925;48.356;10.864;2022-08-19T00:26:44;9.32;;;7.35;;
32469;SDS011;18925;48.356;10.864;2022-08-19T00:27:15;8.77;;;6.50;;
32469;SDS011;18925;48.356;10.864;2022-08-19T00:27:46;8.25;;;6.40;;
32469;SDS011;18925;48.356;10.864;2022-08-19T00:28:18;7.28;;;6.15;;
32469;SDS011;18925;48.356;10.864;2022-08-19T00:28:48;16.23;;;6.85;;
32469;SDS011;18925;48.356;10.864;2022-08-19T00:29:19;13.05;;;7.38;;
32469;SDS011;18925;48.356;10.864;2022-08-19T00:29:51;11.85;;;6.70;;
32469;SDS011;18925;48.356;10.864;2022-08-19T00:30:21;20.20;;;6.78;;
32469;SDS011;18925;48.356;10.864;2022-08-19T00:30:52;7.57;;;4.53;;
32469;SDS011;18925;48.356;10.864;2022-08-19T00:31:23;8.20;;;4.38;;
32469;SDS011;18925;48.356;10.864;2022-08-19T00:31:55;7.30;;;5.35;;
32469;SDS011;18925;48.356;10.864;2022-08-19T00:32:27;9.18;;;4.80;;
32469;SDS011;18925;48.356;10.864;2022-08-19T00:32:58;6.65;;;4.65;;
32469;SDS011;18925;48.356;10.864;2022-08-19T00:33:29;10.85;;;4.85;;
32469;SDS011;18925;48.356;10.864;2022-08-19T00:34:03;13.20;;;5.57;;
32469;SDS011;18925;48.356;10.864;2022-08-19T00:34:34;6.18;;;4.68;;
32469;SDS011;18925;48.356;10.864;2022-08-19T00:35:05;7.30;;;4.40;;
32469;SDS011;18925;48.356;10.864;2022-08-19T00:35:36;6.28;;;4.90;;
32469;SDS011;18925;48.356;10.864;2022-08-19T00:36:08;8.88;;;4.45;;
32469;SDS011;18925;48.356;10.864;2022-08-19T00:36:40;7.50;;;4.55;;
32469;SDS011;18925;48.356;10.864;2022-08-19T00:37:11;5.30;;;4.40;;
32469;SDS011;18925;48.356;10.864;2022-08-19T00:37:41;5.65;;;4.07;;
32469;SDS011;18925;48.356;10.864;2022-08-19T00:38:13;10.10;;;4.05;;
32469;SDS011;18925;48.356;10.864;2022-08-19T00:38:44;7.53;;;4.88;;
32469;SDS011;18925;48.356;10.864;2022-08-19T00:39:15;6.18;;;4.53;;
32469;SDS011;18925;48.356;10.864;2022-08-19T00:39:47;4.93;;;4.40;;
32469;SDS011;18925;48.356;10.864;2022-08-19T00:40:17;11.48;;;5.03;;
32469;SDS011;18925;48.356;10.864;2022-08-19T00:40:49;6.20;;;4.60;;
32469;SDS011;18925;48.356;10.864;2022-08-19T00:41:20;11.23;;;5.32;;
32469;SDS011;18925;48.356;10.864;2022-08-19T00:41:51;15.82;;;5.57;;
32469;SDS011;18925;48.356;10.864;2022-08-19T00:42:22;13.75;;;5.20;;
32469;SDS011;18925;48.356;10.864;2022-08-19T00:42:53;8.18;;;5.57;;
32469;SDS011;18925;48.356;10.864;2022-08-19T00:43:25;18.55;;;5.65;;
32469;SDS011;18925;48.356;10.864;2022-08-19T00:44:28;10.73;;;6.85;;
32469;SDS011;18925;48.356;10.864;2022-08-19T00:45:00;10.20;;;6.60;;
32469;SDS011;18925;48.356;10.864;2022-08-19T00:45:31;10.73;;;5.35;;
32469;SDS011;18925;48.356;10.864;2022-08-19T00:46:02;10.02;;;5.97;;
32469;SDS011;18925;48.356;10.864;2022-08-19T00:46:35;11.90;;;6.85;;
32469;SDS011;18925;48.356;10.864;2022-08-19T00:47:08;8.52;;;7.57;;
32469;SDS011;18925;48.356;10.864;2022-08-19T00:47:39;8.77;;;7.05;;
32469;SDS011;18925;48.356;10.864;2022-08-19T00:48:10;9.20;;;6.30;;
32469;SDS011;18925;48.356;10.864;2022-08-19T00:48:40;11.40;;;7.53;;
32469;SDS011;18925;48.356;10.864;2022-08-19T00:49:12;14.02;;;7.65;;
32469;SDS011;18925;48.356;10.864;2022-08-19T00:49:50;11.45;;;7.45;;
32469;SDS011;18925;48.356;10.864;2022-08-19T00:50:24;11.13;;;8.45;;
32469;SDS011;18925;48.356;10.864;2022-08-19T00:50:54;7.65;;;6.45;;
32469;SDS011;18925;48.356;10.864;2022-08-19T00:51:26;8.38;;;6.47;;
32469;SDS011;18925;48.356;10.864;2022-08-19T00:52:00;10.02;;;6.88;;
32469;SDS011;18925;48.356;10.864;2022-08-19T00:52:39;8.85;;;5.80;;
32469;SDS011;18925;48.356;10.864;2022-08-19T00:53:15;5.28;;;4.38;;
32469;SDS011;18925;48.356;10.864;2022-08-19T00:53:48;10.02;;;4.63;;
32469;SDS011;18925;48.356;10.864;2022-08-19T00:54:19;11.15;;;5.00;;
32469;SDS011;18925;48.356;10.864;2022-08-19T00:54:52;5.32;;;4.80;;
32469;SDS011;18925;48.356;10.864;2022-08-19T00:55:24;6.97;;;4.80;;
32469;SDS011;18925;48.356;10.864;2022-08-19T00:55:59;7.65;;;5.50;;
32469;SDS011;18925;48.356;10.864;2022-08-19T00:56:32;9.95;;;5.60;;
32469;SDS011;18925;48.356;10.864;2022-08-19T00:57:04;8.57;;;4.70;;
32469;SDS011;18925;48.356;10.864;2022-08-19T00:57:40;8.27;;;4.60;;
32469;SDS011;18925;48.356;10.864;2022-08-19T00:58:15;5.55;;;3.85;;
32469;SDS011;18925;48.356;10.864;2022-08-19T00:58:52;5.80;;;4.95;;
32469;SDS011;18925;48.356;10.864;2022-08-19T00:59:26;12.32;;;5.32;;
32469;SDS011;18925;48.356;10.864;2022-08-19T00:59:59;7.72;;;4.57;;
32469;SDS011;18925;48.356;10.864;2022-08-19T01:00:33;6.90;;;4.63;;
32469;SDS011;18925;48.356;10.864;2022-08-19T01:01:07;7.20;;;4.45;;
32469;SDS011;18925;48.356;10.864;2022-08-19T01:01:39;8.25;;;5.18;;
32469;SDS011;18925;48.356;10.864;2022-08-19T01:02:11;6.35;;;5.55;;
32469;SDS011;18925;48.356;10.864;2022-08-19T01:02:42;6.25;;;5.65;;
32469;SDS011;18925;48.356;10.864;2022-08-19T01:03:16;8.85;;;5.55;;
32469;SDS011;18925;48.356;10.864;2022-08-19T01:03:49;7.75;;;5.00;;
32469;SDS011;18925;48.356;10.864;2022-08-19T01:04:20;7.70;;;5.53;;
32469;SDS011;18925;48.356;10.864;2022-08-19T01:04:50;7.20;;;5.10;;
32469;SDS011;18925;48.356;10.864;2022-08-19T01:05:23;7.78;;;5.50;;
32469;SDS011;18925;48.356;10.864;2022-08-19T01:05:58;8.30;;;6.47;;
32469;SDS011;18925;48.356;10.864;2022-08-19T01:06:30;9.52;;;6.10;;
32469;SDS011;18925;48.356;10.864;2022-08-19T01:07:02;10.93;;;6.63;;
32469;SDS011;18925;48.356;10.864;2022-08-19T01:07:33;9.27;;;5.63;;
32469;SDS011;18925;48.356;10.864;2022-08-19T01:08:05;6.78;;;5.53;;
32469;SDS011;18925;48.356;10.864;2022-08-19T01:08:37;7.95;;;5.93;;
32469;SDS011;18925;48.356;10.864;2022-08-19T01:09:08;9.55;;;6.00;;
32469;SDS011;18925;48.356;10.864;2022-08-19T01:09:39;9.65;;;6.05;;
32469;SDS011;18925;48.356;10.864;2022-08-19T01:10:14;10.52;;;6.47;;
32469;SDS011;18925;48.356;10.864;2022-08-19T01:10:49;6.65;;;5.80;;
32469;SDS011;18925;48.356;10.864;2022-08-19T01:11:22;8.88;;;6.40;;
32469;SDS011;18925;48.356;10.864;2022-08-19T01:11:52;8.45;;;6.07;;
32469;SDS011;18925;48.356;10.864;2022-08-19T01:12:24;7.93;;;5.75;;
32469;SDS011;18925;48.356;10.864;2022-08-19T01:12:55;9.27;;;6.63;;
32469;SDS011;18925;48.356;10.864;2022-08-19T01:13:29;7.93;;;6.47;;
32469;SDS011;18925;48.356;10.864;2022-08-19T01:14:03;8.38;;;5.95;;
32469;SDS011;18925;48.356;10.864;2022-08-19T01:14:33;9.00;;;6.95;;
32469;SDS011;18925;48.356;10.864;2022-08-19T01:15:07;8.05;;;7.13;;
32469;SDS011;18925;48.356;10.864;2022-08-19T01:15:41;7.55;;;6.65;;
32469;SDS011;18925;48.356;10.864;2022-08-19T01:16:19;8.90;;;7.20;;
32469;SDS011;18925;48.356;10.864;2022-08-19T01:16:53;8.82;;;6.90;;
32469;SDS011;18925;48.356;10.864;2022-08-19T01:17:25;8.18;;;7.15;;
32469;SDS011;18925;48.356;10.864;2022-08-19T01:17:57;12.70;;;8.35;;
32469;SDS011;18925;48.356;10.864;2022-08-19T01:18:31;11.98;;;7.72;;
32469;SDS011;18925;48.356;10.864;2022-08-19T01:19:12;13.40;;;8.40;;
32469;SDS011;18925;48.356;10.864;2022-08-19T01:20:02;8.60;;;7.07;;
32469;SDS011;18925;48.356;10.864;2022-08-19T01:20:33;10.35;;;7.70;;
32469;SDS011;18925;48.356;10.864;2022-08-19T01:21:09;11.65;;;9.15;;
32469;SDS011;18925;48.356;10.864;2022-08-19T01:21:49;9.70;;;8.70;;
32469;SDS011;18925;48.356;10.864;2022-08-19T01:22:58;10.38;;;8.13;;
32469;SDS011;18925;48.356;10.864;2022-08-19T01:23:29;12.93;;;9.75;;
32469;SDS011;18925;48.356;10.864;2022-08-19T01:24:14;11.02;;;8.82;;
32469;SDS011;18925;48.356;10.864;2022-08-19T01:24:45;13.07;;;10.40;;
32469;SDS011;18925;48.356;10.864;2022-08-19T01:25:17;13.35;;;10.23;;
32469;SDS011;18925;48.356;10.864;2022-08-19T01:25:51;14.40;;;10.43;;
32469;SDS011;18925;48.356;10.864;2022-08-19T01:26:24;10.95;;;9.48;;
32469;SDS011;18925;48.356;10.864;2022-08-19T01:26:56;13.18;;;10.65;;
32469;SDS011;18925;48.356;10.864;2022-08-19T01:27:36;14.57;;;10.90;;
32469;SDS011;18925;48.356;10.864;2022-08-19T01:28:14;12.82;;;10.98;;
32469;SDS011;18925;48.356;10.864;2022-08-19T01:28:49;12.18;;;10.88;;
32469;SDS011;18925;48.356;10.864;2022-08-19T01:29:21;13.30;;;10.30;;
32469;SDS011;18925;48.356;10.864;2022-08-19T01:29:52;13.40;;;10.88;;
32469;SDS011;18925;48.356;10.864;2022-08-19T01:30:27;15.80;;;11.65;;
32469;SDS011;18925;48.356;10.864;2022-08-19T01:31:01;14.50;;;12.43;;
32469;SDS011;18925;48.356;10.864;2022-08-19T01:31:32;14.85;;;13.13;;
32469;SDS011;18925;48.356;10.864;2022-08-19T01:32:03;15.25;;;12.35;;
32469;SDS011;18925;48.356;10.864;2022-08-19T01:32:34;18.30;;;13.75;;
32469;SDS011;18925;48.356;10.864;2022-08-19T01:33:05;22.45;;;15.25;;
32469;SDS011;18925;48.356;10.864;2022-08-19T01:33:36;16.58;;;13.25;;
32469;SDS011;18925;48.356;10.864;2022-08-19T01:34:06;18.63;;;13.93;;
32469;SDS011;18925;48.356;10.864;2022-08-19T01:34:37;15.45;;;13.65;;
32469;SDS011;18925;48.356;10.864;2022-08-19T01:35:10;16.95;;;14.23;;
32469;SDS011;18925;48.356;10.864;2022-08-19T01:35:42;16.70;;;14.55;;
32469;SDS011;18925;48.356;10.864;2022-08-19T01:36:14;18.45;;;14.10;;
32469;SDS011;18925;48.356;10.864;2022-08-19T01:36:52;16.17;;;10.55;;
32469;SDS011;18925;48.356;10.864;2022-08-19T01:37:23;19.25;;;14.43;;
32469;SDS011;18925;48.356;10.864;2022-08-19T01:37:58;17.70;;;13.90;;
32469;SDS011;18925;48.356;10.864;2022-08-19T01:38:34;17.27;;;14.73;;
32469;SDS011;18925;48.356;10.864;2022-08-19T01:39:07;16.65;;;13.93;;
32469;SDS011;18925;48.356;10.864;2022-08-19T01:39:40;19.35;;;14.95;;
32469;SDS011;18925;48.356;10.864;2022-08-19T01:40:12;19.02;;;15.40;;
32469;SDS011;18925;48.356;10.864;2022-08-19T01:40:43;20.10;;;16.17;;
32469;SDS011;18925;48.356;10.864;2022-08-19T01:41:13;18.48;;;14.48;;
32469;SDS011;18925;48.356;10.864;2022-08-19T01:41:45;17.90;;;14.73;;
32469;SDS011;18925;48.356;10.864;2022-08-19T01:42:16;19.00;;;14.57;;
32469;SDS011;18925;48.356;10.864;2022-08-19T01:42:48;14.77;;;13.20;;
32469;SDS011;18925;48.356;10.864;2022-08-19T01:43:19;19.95;;;15.23;;
32469;SDS011;18925;48.356;10.864;2022-08-19T01:43:51;18.77;;;14.95;;
32469;SDS011;18925;48.356;10.864;2022-08-19T01:44:22;22.40;;;16.55;;
32469;SDS011;18925;48.356;10.864;2022-08-19T01:44:54;19.40;;;15.02;;
32469;SDS011;18925;48.356;10.864;2022-08-19T01:45:25;23.33;;;17.40;;
32469;SDS011;18925;48.356;10.864;2022-08-19T01:45:58;29.10;;;20.67;;
32469;SDS011;18925;48.356;10.864;2022-08-19T01:46:28;19.60;;;16.88;;
32469;SDS011;18925;48.356;10.864;2022-08-19T01:47:00;19.80;;;16.08;;
32469;SDS011;18925;48.356;10.864;2022-08-19T01:47:30;18.70;;;16.08;;
32469;SDS011;18925;48.356;10.864;2022-08-19T01:48:01;20.73;;;17.02;;
32469;SDS011;18925;48.356;10.864;2022-08-19T01:48:37;21.23;;;16.85;;
32469;SDS011;18925;48.356;10.864;2022-08-19T01:49:10;22.48;;;16.95;;
32469;SDS011;18925;48.356;10.864;2022-08-19T01:49:41;23.17;;;17.17;;
32469;SDS011;18925;48.356;10.864;2022-08-19T01:50:12;22.23;;;17.38;;
32469;SDS011;18925;48.356;10.864;2022-08-19T01:50:43;20.70;;;17.25;;
32469;SDS011;18925;48.356;10.864;2022-08-19T01:51:14;23.48;;;18.70;;
32469;SDS011;18925;48.356;10.864;2022-08-19T01:51:45;23.38;;;18.92;;
32469;SDS011;18925;48.356;10.864;2022-08-19T01:52:16;25.83;;;19.52;;
32469;SDS011;18925;48.356;10.864;2022-08-19T01:52:47;22.35;;;18.33;;
32469;SDS011;18925;48.356;10.864;2022-08-19T01:53:17;23.55;;;18.90;;
32469;SDS011;18925;48.356;10.864;2022-08-19T01:53:49;21.45;;;18.30;;
32469;SDS011;18925;48.356;10.864;2022-08-19T01:54:21;28.15;;;21.50;;
32469;SDS011;18925;48.356;10.864;2022-08-19T01:54:53;26.90;;;19.70;;
32469;SDS011;18925;48.356;10.864;2022-08-19T01:55:23;28.23;;;20.17;;
32469;SDS011;18925;48.356;10.864;2022-08-19T01:55:54;24.88;;;20.55;;
32469;SDS011;18925;48.356;10.864;2022-08-19T01:56:25;30.30;;;20.27;;
32469;SDS011;18925;48.356;10.864;2022-08-19T01:57:03;25.70;;;19.45;;
32469;SDS011;18925;48.356;10.864;2022-08-19T01:57:39;29.98;;;22.52;;
32469;SDS011;18925;48.356;10.864;2022-08-19T01:58:14;39.45;;;24.90;;
32469;SDS011;18925;48.356;10.864;2022-08-19T01:58:55;30.17;;;22.75;;
32469;SDS011;18925;48.356;10.864;2022-08-19T01:59:30;26.10;;;19.63;;
32469;SDS011;18925;48.356;10.864;2022-08-19T02:00:03;25.52;;;20.45;;
32469;SDS011;18925;48.356;10.864;2022-08-19T02:00:37;29.85;;;24.20;;
32469;SDS011;18925;48.356;10.864;2022-08-19T02:01:08;29.05;;;23.02;;
32469;SDS011;18925;48.356;10.864;2022-08-19T02:01:39;28.70;;;22.48;;
32469;SDS011;18925;48.356;10.864;2022-08-19T02:02:10;24.00;;;18.88;;
32469;SDS011;18925;48.356;10.864;2022-08-19T02:02:40;27.85;;;21.05;;
32469;SDS011;18925;48.356;10.864;2022-08-19T02:03:12;26.90;;;22.25;;
32469;SDS011;18925;48.356;10.864;2022-08-19T02:03:43;32.47;;;22.10;;
32469;SDS011;18925;48.356;10.864;2022-08-19T02:04:13;28.15;;;21.10;;
32469;SDS011;18925;48.356;10.864;2022-08-19T02:04:44;30.23;;;22.50;;
32469;SDS011;18925;48.356;10.864;2022-08-19T02:05:15;32.88;;;23.52;;
32469;SDS011;18925;48.356;10.864;2022-08-19T02:05:53;29.38;;;22.20;;
32469;SDS011;18925;48.356;10.864;2022-08-19T02:06:26;26.85;;;22.08;;
32469;SDS011;18925;48.356;10.864;2022-08-19T02:06:57;30.73;;;22.08;;
32469;SDS011;18925;48.356;10.864;2022-08-19T02:07:28;34.72;;;23.17;;
32469;SDS011;18925;48.356;10.864;2022-08-19T02:07:59;28.42;;;22.48;;
32469;SDS011;18925;48.356;10.864;2022-08-19T02:08:29;31.90;;;23.75;;
32469;SDS011;18925;48.356;10.864;2022-08-19T02:09:03;36.58;;;26.83;;
32469;SDS011;18925;48.356;10.864;2022-08-19T02:09:34;32.67;;;24.42;;
32469;SDS011;18925;48.356;10.864;2022-08-19T02:10:07;30.85;;;23.35;;
32469;SDS011;18925;48.356;10.864;2022-08-19T02:10:40;30.30;;;23.45;;
32469;SDS011;18925;48.356;10.864;2022-08-19T02:11:20;34.10;;;25.77;;
32469;SDS011;18925;48.356;10.864;2022-08-19T02:11:54;29.20;;;22.27;;
32469;SDS011;18925;48.356;10.864;2022-08-19T02:12:24;32.08;;;23.77;;
32469;SDS011;18925;48.356;10.864;2022-08-19T02:12:55;29.35;;;22.40;;
32469;SDS011;18925;48.356;10.864;2022-08-19T02:13:26;30.23;;;24.67;;
32469;SDS011;18925;48.356;10.864;2022-08-19T02:13:58;34.13;;;25.55;;
32469;SDS011;18925;48.356;10.864;2022-08-19T02:14:33;30.33;;;24.27;;
32469;SDS011;18925;48.356;10.864;2022-08-19T02:15:05;35.63;;;26.52;;
32469;SDS011;18925;48.356;10.864;2022-08-19T02:15:36;30.27;;;24.73;;
32469;SDS011;18925;48.356;10.864;2022-08-19T02:16:07;35.03;;;26.10;;
32469;SDS011;18925;48.356;10.864;2022-08-19T02:16:37;36.00;;;27.02;;
32469;SDS011;18925;48.356;10.864;2022-08-19T02:17:10;35.72;;;27.60;;
32469;SDS011;18925;48.356;10.864;2022-08-19T02:17:40;36.22;;;28.58;;
32469;SDS011;18925;48.356;10.864;2022-08-19T02:18:12;37.38;;;27.42;;
32469;SDS011;18925;48.356;10.864;2022-08-19T02:18:42;35.75;;;25.92;;
32469;SDS011;18925;48.356;10.864;2022-08-19T02:19:13;32.60;;;24.95;;
32469;SDS011;18925;48.356;10.864;2022-08-19T02:19:43;38.22;;;25.67;;
32469;SDS011;18925;48.356;10.864;2022-08-19T02:20:14;33.70;;;25.63;;
32469;SDS011;18925;48.356;10.864;2022-08-19T02:20:45;34.67;;;26.80;;
32469;SDS011;18925;48.356;10.864;2022-08-19T02:21:21;38.17;;;27.58;;
32469;SDS011;18925;48.356;10.864;2022-08-19T02:21:53;35.72;;;27.00;;
32469;SDS011;18925;48.356;10.864;2022-08-19T02:22:24;38.90;;;27.90;;
32469;SDS011;18925;48.356;10.864;2022-08-19T02:22:57;51.17;;;33.53;;
32469;SDS011;18925;48.356;10.864;2022-08-19T02:23:28;35.55;;;27.88;;
32469;SDS011;18925;48.356;10.864;2022-08-19T02:23:58;36.75;;;29.60;;
32469;SDS011;18925;48.356;10.864;2022-08-19T02:24:29;42.20;;;29.77;;
32469;SDS011;18925;48.356;10.864;2022-08-19T02:25:00;35.00;;;27.83;;
32469;SDS011;18925;48.356;10.864;2022-08-19T02:25:30;32.55;;;27.00;;
32469;SDS011;18925;48.356;10.864;2022-08-19T02:26:01;39.97;;;29.63;;
32469;SDS011;18925;48.356;10.864;2022-08-19T02:26:32;36.63;;;28.60;;
32469;SDS011;18925;48.356;10.864;2022-08-19T02:27:03;37.63;;;29.08;;
32469;SDS011;18925;48.356;10.864;2022-08-19T02:27:34;40.90;;;30.83;;
32469;SDS011;18925;48.356;10.864;2022-08-19T02:28:05;43.17;;;31.00;;
32469;SDS011;18925;48.356;10.864;2022-08-19T02:28:37;48.35;;;32.70;;
32469;SDS011;18925;48.356;10.864;2022-08-19T02:29:08;39.95;;;30.95;;
32469;SDS011;18925;48.356;10.864;2022-08-19T02:29:38;41.85;;;31.83;;
32469;SDS011;18925;48.356;10.864;2022-08-19T02:30:11;47.15;;;32.95;;
32469;SDS011;18925;48.356;10.864;2022-08-19T02:30:46;42.88;;;33.30;;
32469;SDS011;18925;48.356;10.864;2022-08-19T02:31:18;46.20;;;32.42;;
32469;SDS011;18925;48.356;10.864;2022-08-19T02:31:50;40.63;;;31.55;;
32469;SDS011;18925;48.356;10.864;2022-08-19T02:32:21;46.33;;;33.08;;
32469;SDS011;18925;48.356;10.864;2022-08-19T02:32:52;42.67;;;31.92;;
32469;SDS011;18925;48.356;10.864;2022-08-19T02:33:23;53.17;;;37.03;;
32469;SDS011;18925;48.356;10.864;2022-08-19T02:33:54;42.95;;;32.83;;
32469;SDS011;18925;48.356;10.864;2022-08-19T02:34:25;45.67;;;33.85;;
32469;SDS011;18925;48.356;10.864;2022-08-19T02:34:56;42.33;;;32.38;;
32469;SDS011;18925;48.356;10.864;2022-08-19T02:35:27;42.90;;;31.63;;
32469;SDS011;18925;48.356;10.864;2022-08-19T02:35:57;49.72;;;34.28;;
32469;SDS011;18925;48.356;10.864;2022-08-19T02:36:28;45.63;;;34.45;;
32469;SDS011;18925;48.356;10.864;2022-08-19T02:36:59;45.78;;;33.33;;
32469;SDS011;18925;48.356;10.864;2022-08-19T02:37:30;42.47;;;32.80;;
32469;SDS011;18925;48.356;10.864;2022-08-19T02:38:19;39.20;;;31.50;;
32469;SDS011;18925;48.356;10.864;2022-08-19T02:38:56;51.50;;;34.72;;
32469;SDS011;18925;48.356;10.864;2022-08-19T02:39:26;56.25;;;37.90;;
32469;SDS011;18925;48.356;10.864;2022-08-19T02:39:57;47.75;;;35.08;;
32469;SDS011;18925;48.356;10.864;2022-08-19T02:40:29;41.50;;;33.38;;
32469;SDS011;18925;48.356;10.864;2022-08-19T02:41:04;44.90;;;33.65;;
32469;SDS011;18925;48.356;10.864;2022-08-19T02:41:39;49.60;;;35.10;;
32469;SDS011;18925;48.356;10.864;2022-08-19T02:42:09;42.40;;;35.03;;
32469;SDS011;18925;48.356;10.864;2022-08-19T02:42:40;44.55;;;34.95;;
32469;SDS011;18925;48.356;10.864;2022-08-19T02:43:12;49.05;;;34.83;;
32469;SDS011;18925;48.356;10.864;2022-08-19T02:43:43;43.50;;;34.75;;
32469;SDS011;18925;48.356;10.864;2022-08-19T02:44:14;52.70;;;36.40;;
32469;SDS011;18925;48.356;10.864;2022-08-19T02:44:45;44.75;;;34.10;;
32469;SDS011;18925;48.356;10.864;2022-08-19T02:45:15;47.60;;;35.35;;
32469;SDS011;18925;48.356;10.864;2022-08-19T02:45:47;44.85;;;35.53;;
32469;SDS011;18925;48.356;10.864;2022-08-19T02:46:19;46.95;;;35.65;;
32469;SDS011;18925;48.356;10.864;2022-08-19T02:46:53;51.53;;;36.72;;
32469;SDS011;18925;48.356;10.864;2022-08-19T02:47:23;48.35;;;36.15;;
32469;SDS011;18925;48.356;10.864;2022-08-19T02:47:54;57.20;;;39.80;;
32469;SDS011;18925;48.356;10.864;2022-08-19T02:48:26;50.03;;;37.63;;
32469;SDS011;18925;48.356;10.864;2022-08-19T02:49:01;48.03;;;34.95;;
32469;SDS011;18925;48.356;10.864;2022-08-19T02:49:36;53.42;;;40.47;;
32469;SDS011;18925;48.356;10.864;2022-08-19T02:50:07;59.65;;;41.35;;
32469;SDS011;18925;48.356;10.864;2022-08-19T02:50:38;52.60;;;38.92;;
32469;SDS011;18925;48.356;10.864;2022-08-19T02:51:15;55.15;;;38.97;;
32469;SDS011;18925;48.356;10.864;2022-08-19T02:51:47;53.17;;;38.55;;
32469;SDS011;18925;48.356;10.864;2022-08-19T02:52:18;52.10;;;38.90;;
32469;SDS011;18925;48.356;10.864;2022-08-19T02:52:48;53.47;;;40.17;;
32469;SDS011;18925;48.356;10.864;2022-08-19T02:53:19;51.40;;;40.28;;
32469;SDS011;18925;48.356;10.864;2022-08-19T02:53:52;57.45;;;40.80;;
32469;SDS011;18925;48.356;10.864;2022-08-19T02:54:23;59.33;;;42.20;;
32469;SDS011;18925;48.356;10.864;2022-08-19T02:54:54;57.90;;;42.42;;
32469;SDS011;18925;48.356;10.864;2022-08-19T02:55:27;64.18;;;45.08;;
32469;SDS011;18925;48.356;10.864;2022-08-19T02:55:58;46.47;;;39.05;;
32469;SDS011;18925;48.356;10.864;2022-08-19T02:56:28;62.50;;;42.53;;
32469;SDS011;18925;48.356;10.864;2022-08-19T02:57:00;57.97;;;43.10;;
32469;SDS011;18925;48.356;10.864;2022-08-19T02:57:31;62.65;;;45.00;;
32469;SDS011;18925;48.356;10.864;2022-08-19T02:58:02;58.97;;;41.80;;
32469;SDS011;18925;48.356;10.864;2022-08-19T02:58:33;58.70;;;40.90;;
32469;SDS011;18925;48.356;10.864;2022-08-19T02:59:04;56.28;;;42.15;;
32469;SDS011;18925;48.356;10.864;2022-08-19T02:59:38;67.25;;;47.08;;
32469;SDS011;18925;48.356;10.864;2022-08-19T03:00:09;59.42;;;44.60;;
32469;SDS011;18925;48.356;10.864;2022-08-19T03:00:47;57.47;;;42.40;;
32469;SDS011;18925;48.356;10.864;2022-08-19T03:01:53;66.97;;;47.13;;
32469;SDS011;18925;48.356;10.864;2022-08-19T03:02:23;54.15;;;42.03;;
32469;SDS011;18925;48.356;10.864;2022-08-19T03:02:54;62.38;;;46.75;;
32469;SDS011;18925;48.356;10.864;2022-08-19T03:03:26;63.78;;;44.40;;
32469;SDS011;18925;48.356;10.864;2022-08-19T03:03:57;51.53;;;41.58;;
32469;SDS011;18925;48.356;10.864;2022-08-19T03:04:29;56.80;;;44.15;;
32469;SDS011;18925;48.356;10.864;2022-08-19T03:05:02;55.80;;;43.22;;
32469;SDS011;18925;48.356;10.864;2022-08-19T03:05:33;59.33;;;44.70;;
32469;SDS011;18925;48.356;10.864;2022-08-19T03:06:06;60.75;;;45.78;;
32469;SDS011;18925;48.356;10.864;2022-08-19T03:06:43;56.53;;;44.08;;
32469;SDS011;18925;48.356;10.864;2022-08-19T03:07:15;71.47;;;47.55;;
32469;SDS011;18925;48.356;10.864;2022-08-19T03:07:46;69.40;;;50.08;;
32469;SDS011;18925;48.356;10.864;2022-08-19T03:08:16;58.40;;;46.05;;
32469;SDS011;18925;48.356;10.864;2022-08-19T03:08:48;71.55;;;50.30;;
32469;SDS011;18925;48.356;10.864;2022-08-19T03:09:22;69.45;;;46.38;;